Time;durP1;ratioP1;P1;durP2;ratioP2;P2;SDS_P1;SDS_P2;PMS_P1;PMS_P2;Temp;Humidity;BMP_temperature;BMP_pressure;BME280_temperature;BME280_humidity;BME280_pressure;Samples;Min_cycle;Max_cycle;Signal;HPM_P1;HPM_P2
2022/05/26 00:02:23;;;;;;;11.27;8.13;;;;;;;11.86;93.98;99363.16;8198026;28;20114;-73
2022/05/26 00:06:25;;;;;;;14.35;8.98;;;;;;;11.86;94.31;99357.75;8198271;28;20106;-73
2022/05/26 00:10:26;;;;;;;14.80;9.30;;;;;;;11.91;94.41;99359.53;8198034;28;20516;-72
2022/05/26 00:14:27;;;;;;;14.68;9.38;;;;;;;12.00;94.54;99353.03;8198417;28;20058;-73
2022/05/26 00:18:28;;;;;;;12.18;9.35;;;;;;;12.00;94.48;99353.03;8203574;28;20134;-72
2022/05/26 00:22:29;;;;;;;17.55;10.40;;;;;;;12.01;94.58;99353.84;8204599;28;20054;-74
2022/05/26 00:26:30;;;;;;;13.88;9.82;;;;;;;12.01;94.42;99354.63;8203382;28;20408;-72
2022/05/26 00:30:32;;;;;;;16.58;10.32;;;;;;;12.01;94.75;99354.63;8204428;28;20059;-72
2022/05/26 00:34:34;;;;;;;13.02;9.00;;;;;;;11.98;94.73;99347.16;8203725;28;20785;-72
2022/05/26 00:38:35;;;;;;;17.20;10.52;;;;;;;11.98;95.16;99349.06;8217373;28;20055;-73
2022/05/26 00:42:36;;;;;;;16.63;9.90;;;;;;;12.02;95.13;99350.81;8203439;28;20543;-73
2022/05/26 00:46:48;;;;;;;16.10;9.98;;;;;;;12.05;95.22;99350.22;8203025;28;20054;-72
2022/05/26 00:50:51;;;;;;;13.43;8.98;;;;;;;12.31;94.75;99347.59;8201331;28;20439;-73
2022/05/26 00:54:54;;;;;;;19.75;9.65;;;;;;;12.36;94.44;99349.38;8171937;29;20052;-73
2022/05/26 00:58:57;;;;;;;13.98;9.95;;;;;;;12.31;94.70;99357.63;8154109;28;20070;-72
2022/05/26 01:03:22;;;;;;;10.82;9.15;;;;;;;12.35;94.64;99353.19;8201935;28;20055;-73
2022/05/26 01:07:27;;;;;;;17.90;10.20;;;;;;;12.39;94.51;99348.72;8202015;28;20051;-73
2022/05/26 01:11:30;;;;;;;19.40;10.20;;;;;;;12.43;94.35;99349.69;8202610;28;20055;-73
2022/05/26 01:15:36;;;;;;;13.50;10.45;;;;;;;12.50;93.99;99350.03;8202866;28;20062;-73
2022/05/26 01:19:49;;;;;;;13.90;9.73;;;;;;;12.52;93.89;99358.66;8202227;28;20507;-72
2022/05/26 01:24:15;;;;;;;12.10;10.10;;;;;;;12.50;93.84;99350.03;8203005;28;20411;-72
2022/05/26 01:28:37;;;;;;;19.55;10.25;;;;;;;12.41;94.30;99347.31;8195157;28;20427;-73
2022/05/26 01:32:56;;;;;;;14.15;10.25;;;;;;;12.42;94.32;99342.69;8202416;28;20074;-73
2022/05/26 01:37:57;;;;;;;16.23;10.68;;;;;;;12.46;94.17;99343.66;8202017;28;20043;-72
2022/05/26 01:41:58;;;;;;;16.98;9.55;;;;;;;12.48;93.97;99338.72;8148252;29;20063;-74
2022/05/26 01:46:20;;;;;;;17.65;10.70;;;;;;;12.45;93.95;99342.06;8166698;29;20183;-73
2022/05/26 01:50:31;;;;;;;17.50;10.18;;;;;;;12.35;94.29;99336.94;8165353;29;20059;-73
2022/05/26 01:54:44;;;;;;;15.88;10.43;;;;;;;12.27;94.52;99335.78;8166180;29;20059;-74
2022/05/26 01:58:49;;;;;;;16.98;10.88;;;;;;;12.14;94.76;99332.09;8149322;29;20128;-74
2022/05/26 02:02:58;;;;;;;15.55;10.82;;;;;;;12.00;95.07;99331.38;8165730;29;20048;-73
2022/05/26 02:07:08;;;;;;;14.35;10.25;;;;;;;11.92;95.46;99342.19;8102300;29;20054;-72
2022/05/26 02:11:15;;;;;;;18.65;10.90;;;;;;;11.83;95.60;99348.38;8132629;29;20429;-72
2022/05/26 02:15:25;;;;;;;15.73;10.07;;;;;;;11.85;95.50;99350.75;8198345;29;20100;-73
2022/05/26 02:20:05;;;;;;;18.77;10.45;;;;;;;11.78;95.54;99345.00;8199639;29;20485;-74
2022/05/26 02:24:14;;;;;;;14.23;9.40;;;;;;;11.83;95.11;99348.38;8165331;29;20058;-74
2022/05/26 02:28:15;;;;;;;18.13;10.25;;;;;;;11.77;95.31;99365.03;8164212;29;20035;-73
2022/05/26 02:32:41;;;;;;;11.80;8.05;;;;;;;11.88;94.57;99355.56;8164496;29;20048;-74
2022/05/26 02:36:42;;;;;;;15.68;8.63;;;;;;;11.87;94.36;99358.56;8074466;29;20147;-72
2022/05/26 02:40:44;;;;;;;10.95;8.80;;;;;;;11.77;94.36;99359.63;8072173;29;20060;-72
2022/05/26 02:44:46;;;;;;;19.02;9.65;;;;;;;11.75;94.56;99356.41;8079897;29;20085;-72
2022/05/26 02:49:04;;;;;;;12.73;8.73;;;;;;;11.69;94.58;99357.63;8095228;29;20082;-77
2022/05/26 02:53:23;;;;;;;23.20;9.60;;;;;;;11.58;94.86;99361.72;8077581;29;20516;-73
2022/05/26 02:57:43;;;;;;;11.23;8.98;;;;;;;11.50;95.00;99365.94;8079021;29;20059;-73
2022/05/26 03:01:55;;;;;;;13.20;8.13;;;;;;;11.47;95.28;99354.97;8115157;29;20126;-73
2022/05/26 03:06:03;;;;;;;19.88;9.77;;;;;;;11.46;95.41;99364.19;8116152;29;20131;-72
2022/05/26 03:10:05;;;;;;;16.30;8.95;;;;;;;11.41;95.02;99346.97;8100868;29;20059;-72
2022/05/26 03:14:06;;;;;;;17.98;8.90;;;;;;;11.39;95.54;99341.06;8185538;28;20051;-72
2022/05/26 03:18:07;;;;;;;13.90;8.57;;;;;;;11.40;95.33;99345.38;8213031;28;20051;-73
2022/05/26 03:22:08;;;;;;;14.70;8.60;;;;;;;11.44;95.15;99351.75;8199751;28;20142;-73
2022/05/26 03:26:09;;;;;;;10.85;7.65;;;;;;;11.44;94.72;99351.75;8210675;28;20401;-72
2022/05/26 03:30:14;;;;;;;15.40;7.47;;;;;;;11.50;94.62;99346.22;8198629;28;20512;-73
2022/05/26 03:42:54;;;;;;;11.55;6.10;;;;;;;11.81;92.49;99344.34;8186288;29;20613;-72
2022/05/26 03:46:55;;;;;;;10.77;6.20;;;;;;;11.98;91.82;99352.56;8199098;28;20495;-74
2022/05/26 03:50:56;;;;;;;11.38;6.40;;;;;;;12.24;90.32;99352.66;8202935;28;20058;-74
2022/05/26 03:54:57;;;;;;;17.10;6.43;;;;;;;12.36;89.43;99346.66;8209404;28;20080;-74
2022/05/26 03:58:58;;;;;;;9.25;5.88;;;;;;;12.47;88.44;99356.09;8223477;28;20090;-73
2022/05/26 04:02:59;;;;;;;11.60;6.07;;;;;;;12.53;88.06;99352.13;8210469;28;20043;-73
2022/05/26 04:07:01;;;;;;;10.48;5.80;;;;;;;12.55;88.04;99350.69;8208314;28;20469;-73
2022/05/26 04:11:02;;;;;;;12.93;5.45;;;;;;;12.59;87.78;99356.25;8204221;28;20138;-73
2022/05/26 04:15:05;;;;;;;10.13;5.90;;;;;;;12.69;86.33;99364.09;8209207;28;20051;-73
2022/05/26 04:19:06;;;;;;;11.70;6.00;;;;;;;12.71;86.36;99356.47;8208922;28;20526;-73
2022/05/26 04:23:10;;;;;;;9.10;5.50;;;;;;;12.78;86.37;99356.00;8209127;28;20134;-73
2022/05/26 04:27:11;;;;;;;8.63;5.22;;;;;;;12.83;85.71;99353.94;8208897;28;20059;-73
2022/05/26 04:31:12;;;;;;;14.98;5.65;;;;;;;12.96;84.65;99358.38;8207088;28;20071;-73
2022/05/26 04:35:14;;;;;;;12.73;6.20;;;;;;;13.03;84.73;99369.56;8222680;28;20074;-72
2022/05/26 04:39:16;;;;;;;8.93;5.00;;;;;;;13.08;83.20;99355.84;8222452;28;20047;-73
2022/05/26 04:43:17;;;;;;;10.13;4.90;;;;;;;13.05;83.74;99356.50;8208813;28;20059;-73
2022/05/26 04:47:18;;;;;;;10.60;4.90;;;;;;;13.10;83.21;99361.78;8207772;28;20419;-72
2022/05/26 04:51:19;;;;;;;15.60;4.72;;;;;;;13.16;83.48;99361.63;8208212;28;20324;-71
2022/05/26 04:55:22;;;;;;;7.85;4.47;;;;;;;13.32;82.18;99365.47;8208739;28;20054;-72
2022/05/26 04:59:23;;;;;;;9.43;4.53;;;;;;;13.47;81.35;99367.69;8208426;28;20058;-72
2022/05/26 05:03:23;;;;;;;13.48;4.50;;;;;;;13.64;79.43;99373.06;8204090;28;20159;-72
2022/05/26 05:07:26;;;;;;;6.28;4.07;;;;;;;13.84;77.94;99372.41;8203136;28;20055;-72
2022/05/26 05:11:30;;;;;;;8.10;4.97;;;;;;;14.11;76.98;99367.69;8168412;29;20411;-72
2022/05/26 05:16:02;;;;;;;6.93;3.92;;;;;;;14.21;75.69;99376.28;8202842;28;20618;-73
2022/05/26 05:20:03;;;;;;;7.70;3.70;;;;;;;14.36;75.67;99383.06;8135588;29;20163;-73
2022/05/26 05:24:21;;;;;;;6.20;3.75;;;;;;;14.40;75.09;99384.03;8135476;29;20052;-72
2022/05/26 05:28:33;;;;;;;9.93;3.45;;;;;;;14.41;73.77;99380.19;8119211;29;20066;-71
2022/05/26 05:32:57;;;;;;;4.72;3.35;;;;;;;14.42;74.02;99381.00;8135276;29;20501;-72
2022/05/26 05:36:58;;;;;;;9.60;3.50;;;;;;;14.49;74.65;99376.63;8072813;29;20044;-72
2022/05/26 05:41:03;;;;;;;9.68;3.08;;;;;;;14.52;72.32;99381.44;8135185;29;20086;-72
2022/05/26 05:45:07;;;;;;;4.90;2.78;;;;;;;14.56;71.52;99393.22;8135098;29;20048;-72
2022/05/26 05:49:08;;;;;;;6.75;2.70;;;;;;;14.62;71.48;99391.91;8134435;29;20041;-73
2022/05/26 05:53:09;;;;;;;8.10;3.08;;;;;;;14.67;70.97;99394.44;8134762;29;20052;-72
2022/05/26 05:57:10;;;;;;;14.85;3.70;;;;;;;14.69;71.11;99394.94;8163394;29;20043;-72
2022/05/26 06:01:11;;;;;;;10.75;3.13;;;;;;;14.71;70.77;99403.53;8167912;29;20123;-72
2022/05/26 06:05:13;;;;;;;8.52;3.53;;;;;;;14.77;69.73;99394.06;8200086;28;20493;-71
2022/05/26 06:09:15;;;;;;;5.10;3.03;;;;;;;14.80;70.10;99387.97;8201333;28;20043;-72
2022/05/26 06:13:17;;;;;;;8.07;3.28;;;;;;;14.89;70.30;99400.72;8201235;28;20062;-71
2022/05/26 06:17:19;;;;;;;5.40;3.13;;;;;;;14.95;69.66;99404.84;8201242;28;20083;-73
2022/05/26 06:21:20;;;;;;;7.10;2.90;;;;;;;14.95;70.72;99400.22;8200795;28;20051;-72
2022/05/26 06:25:21;;;;;;;4.95;2.50;;;;;;;14.99;70.24;99405.78;8201253;28;20127;-73
2022/05/26 06:38:01;;;;;;;6.88;2.72;;;;;;;15.31;70.31;99415.94;8200512;29;20051;-72
2022/05/26 06:42:05;;;;;;;5.03;2.35;;;;;;;15.45;69.44;99407.50;8199928;28;20134;-71
2022/05/26 06:46:06;;;;;;;12.25;3.35;;;;;;;15.61;69.90;99405.78;8181867;28;20075;-72
2022/05/26 06:50:09;;;;;;;15.07;2.92;;;;;;;15.76;69.56;99407.06;8183217;29;20130;-73
2022/05/26 06:54:10;;;;;;;5.10;3.42;;;;;;;15.89;69.01;99400.56;8199998;28;20050;-74
2022/05/26 06:58:11;;;;;;;11.95;2.72;;;;;;;15.95;68.79;99410.09;8200366;28;20110;-72
2022/05/26 07:02:13;;;;;;;7.80;2.58;;;;;;;16.04;68.18;99413.53;8199137;28;20054;-72
2022/05/26 07:06:20;;;;;;;6.53;2.50;;;;;;;16.15;67.31;99409.22;8213202;28;20039;-74
2022/05/26 07:10:21;;;;;;;9.77;2.13;;;;;;;16.27;67.11;99420.16;8197510;29;20475;-73
2022/05/26 07:14:22;;;;;;;4.13;2.00;;;;;;;16.45;65.42;99418.81;8178683;28;20054;-73
2022/05/26 07:18:23;;;;;;;6.88;1.50;;;;;;;16.56;64.46;99418.34;8169660;29;20056;-72
2022/05/26 07:22:24;;;;;;;4.55;1.60;;;;;;;16.71;63.22;99409.50;8171217;29;20051;-73
2022/05/26 07:26:26;;;;;;;4.10;1.30;;;;;;;16.94;62.80;99413.38;8175979;28;20065;-72
2022/05/26 07:30:27;;;;;;;3.97;1.60;;;;;;;17.02;60.46;99426.09;8167439;29;20055;-72
2022/05/26 07:34:28;;;;;;;5.20;1.58;;;;;;;17.06;61.83;99427.00;8189959;29;20047;-72
2022/05/26 07:42:49;;;;;;;5.15;1.55;;;;;;;17.36;61.25;99419.31;8167726;29;20055;-72
2022/05/26 07:46:50;;;;;;;5.80;1.40;;;;;;;17.54;60.91;99425.28;8183738;28;20423;-72
2022/05/26 07:50:51;;;;;;;6.25;1.52;;;;;;;17.65;59.85;99426.41;8195037;28;20040;-72
2022/05/26 07:54:52;;;;;;;2.85;1.30;;;;;;;17.70;58.11;99423.44;8175135;28;20503;-72
2022/05/26 07:58:53;;;;;;;4.00;1.17;;;;;;;17.79;56.13;99417.81;8199309;28;20520;-72
2022/05/26 08:02:54;;;;;;;4.25;1.00;;;;;;;17.86;57.41;99432.47;8213349;28;20129;-73
2022/05/26 08:06:55;;;;;;;1.52;1.10;;;;;;;17.95;57.74;99424.91;8198782;28;20091;-73
2022/05/26 08:10:56;;;;;;;5.03;1.92;;;;;;;18.24;59.57;99422.94;8212565;28;20051;-73
2022/05/26 08:14:57;;;;;;;2.30;1.25;;;;;;;18.34;56.61;99408.72;8165275;29;20058;-73
2022/05/26 08:18:58;;;;;;;2.80;1.00;;;;;;;18.35;53.68;99415.75;8198654;28;20055;-71
2022/05/26 08:23:00;;;;;;;4.22;1.20;;;;;;;18.38;53.23;99420.53;8198133;29;20102;-72
2022/05/26 08:27:00;;;;;;;3.88;1.10;;;;;;;18.54;54.21;99424.09;8198841;28;20054;-73
2022/05/26 08:31:02;;;;;;;3.22;0.98;;;;;;;18.82;53.01;99430.25;8197738;28;20051;-73
2022/05/26 08:35:07;;;;;;;5.80;1.38;;;;;;;18.91;53.80;99428.13;8197935;28;20055;-71
2022/05/26 08:39:08;;;;;;;4.20;1.00;;;;;;;18.96;53.70;99425.13;8192387;28;20101;-72
2022/05/26 08:43:23;;;;;;;6.82;1.40;;;;;;;19.02;52.27;99433.06;8203379;28;20572;-72
2022/05/26 08:47:31;;;;;;;7.65;0.90;;;;;;;19.19;54.11;99421.72;8204086;28;20462;-71
2022/05/26 08:51:50;;;;;;;4.35;1.00;;;;;;;19.34;52.90;99431.81;8201894;28;20092;-72
2022/05/26 08:55:51;;;;;;;;;;;;;;;19.38;52.75;99424.47;8204621;28;20405;-71
2022/05/26 09:00:13;;;;;;;3.00;0.90;;;;;;;19.17;50.83;99429.47;8186346;29;19926;-71
2022/05/26 09:04:14;;;;;;;7.75;1.00;;;;;;;19.26;51.65;99421.84;8232001;28;20089;-73
2022/05/26 09:12:59;;;;;;;4.80;0.90;;;;;;;19.27;51.42;99428.91;8136728;29;20067;-72
2022/05/26 09:17:10;;;;;;;1.08;0.80;;;;;;;19.15;49.76;99429.03;8137118;29;20100;-72
2022/05/26 09:21:22;;;;;;;4.50;1.25;;;;;;;19.21;51.50;99435.81;8136885;29;20060;-73
2022/05/26 09:25:38;;;;;;;4.45;1.38;;;;;;;19.31;52.12;99430.56;8136729;29;20052;-71
2022/05/26 09:29:39;;;;;;;3.45;0.90;;;;;;;19.74;51.61;99443.25;8136211;29;20052;-72
2022/05/26 09:33:40;;;;;;;1.15;0.80;;;;;;;19.76;49.32;99440.94;8122917;29;20529;-72
2022/05/26 09:37:43;;;;;;;4.53;0.98;;;;;;;19.44;49.43;99444.94;8115631;29;20083;-71
2022/05/26 09:41:50;;;;;;;7.13;0.90;;;;;;;19.36;49.45;99443.19;8120111;29;20526;-72
2022/05/26 09:45:56;;;;;;;1.23;0.90;;;;;;;19.19;49.96;99449.84;8136948;29;20258;-73
2022/05/26 09:49:59;;;;;;;4.32;0.90;;;;;;;19.28;51.56;99435.97;8197662;28;20058;-73
2022/05/26 09:54:28;;;;;;;2.65;1.00;;;;;;;19.54;51.75;99432.63;8202022;28;20126;-72
2022/05/26 09:58:37;;;;;;;8.18;1.10;;;;;;;19.70;50.22;99439.63;8202452;28;20055;-72
2022/05/26 10:02:40;;;;;;;2.92;0.80;;;;;;;19.85;49.12;99445.41;8202283;28;20048;-72
2022/05/26 10:07:12;;;;;;;2.35;1.00;;;;;;;19.67;49.39;99456.78;8215614;28;20047;-72
2022/05/26 10:11:37;;;;;;;2.25;1.00;;;;;;;19.95;49.02;99447.53;8201859;28;20051;-72
2022/05/26 10:16:25;;;;;;;6.57;1.30;;;;;;;19.80;49.35;99447.28;8200438;29;20138;-72
2022/05/26 10:20:29;;;;;;;5.63;0.82;;;;;;;19.80;49.69;99451.97;8041754;29;20057;-71
2022/05/26 10:24:56;;;;;;;8.35;1.13;;;;;;;19.93;50.00;99460.84;8041674;29;20088;-72
2022/05/26 10:29:31;;;;;;;3.15;1.30;;;;;;;20.38;49.26;99466.41;8024692;29;20058;-71
2022/05/26 10:33:35;;;;;;;1.85;0.80;;;;;;;20.39;48.33;99457.03;8039581;29;20073;-70
2022/05/26 10:37:42;;;;;;;4.43;0.90;;;;;;;20.05;48.82;99457.91;8013286;29;20076;-73
2022/05/26 10:41:45;;;;;;;4.78;0.90;;;;;;;20.65;49.25;99462.56;7979924;29;20426;-72
2022/05/26 10:45:48;;;;;;;2.33;0.82;;;;;;;20.41;48.05;99462.16;7997720;29;20538;-71
2022/05/26 10:50:01;;;;;;;7.80;0.93;;;;;;;20.12;48.18;99474.50;8019414;29;20087;-71
2022/05/26 10:54:28;;;;;;;4.95;0.85;;;;;;;20.04;49.17;99473.56;8015531;29;20050;-71
2022/05/26 10:58:37;;;;;;;4.50;1.77;;;;;;;20.70;50.42;99460.66;8186735;29;20511;-72
2022/05/26 11:03:13;;;;;;;6.07;0.88;;;;;;;21.41;48.16;99457.06;8196161;28;20055;-72
2022/05/26 11:08:00;;;;;;;3.10;0.63;;;;;;;21.09;47.40;99473.06;8151940;29;20055;-71
2022/05/26 11:12:24;;;;;;;2.20;0.70;;;;;;;20.19;48.69;99477.41;8164177;29;20051;-72
2022/05/26 11:21:06;;;;;;;1.90;0.68;;;;;;;19.77;49.61;99475.38;8089353;29;20458;-72
2022/05/26 11:25:08;;;;;;;2.63;0.98;;;;;;;19.48;50.13;99478.69;8083856;29;20514;-73
2022/05/26 11:29:15;;;;;;;7.85;1.23;;;;;;;19.53;51.41;99470.19;8087254;29;20053;-73
2022/05/26 11:37:54;;;;;;;1.67;0.93;;;;;;;20.31;49.40;99471.75;8090243;29;20061;-73
2022/05/26 11:41:58;;;;;;;5.60;1.00;;;;;;;20.52;49.89;99485.84;8085929;29;20060;-72
2022/05/26 11:45:59;;;;;;;2.53;0.90;;;;;;;20.55;47.06;99471.41;8119177;29;20063;-72
2022/05/26 11:50:20;;;;;;;5.03;0.90;;;;;;;20.45;48.42;99476.72;8184895;29;20043;-72
2022/05/26 11:54:53;;;;;;;11.85;1.08;;;;;;;20.31;47.12;99477.25;8199151;28;20055;-72
2022/05/26 11:59:22;;;;;;;2.63;1.00;;;;;;;20.24;48.13;99477.09;8130976;29;20152;-73
2022/05/26 12:03:28;;;;;;;6.25;0.88;;;;;;;20.62;46.83;99470.75;8099659;29;20468;-71
2022/05/26 12:07:37;;;;;;;7.80;1.10;;;;;;;20.73;46.77;99470.94;8131201;29;20100;-72
2022/05/26 12:12:01;;;;;;;1.10;0.70;;;;;;;21.16;44.72;99462.19;8131535;29;20044;-72
2022/05/26 12:16:19;;;;;;;1.40;0.88;;;;;;;21.21;43.91;99448.16;8137792;29;20098;-72
2022/05/26 12:20:20;;;;;;;3.33;0.82;;;;;;;21.03;46.38;99463.56;8122724;29;20059;-72
2022/05/26 12:24:34;;;;;;;6.68;0.80;;;;;;;20.60;46.98;99462.88;8138233;29;20119;-71
2022/05/26 12:28:35;;;;;;;4.20;0.80;;;;;;;20.42;48.23;99467.25;8138037;29;20056;-72
2022/05/26 12:32:38;;;;;;;2.85;0.70;;;;;;;20.24;47.90;99449.69;8138658;29;20056;-72
2022/05/26 12:36:52;;;;;;;3.63;0.93;;;;;;;20.26;48.57;99461.06;8173178;29;20139;-72
2022/05/26 12:41:12;;;;;;;2.50;1.00;;;;;;;20.33;48.17;99458.47;8195088;28;20060;-72
2022/05/26 12:45:20;;;;;;;5.35;1.00;;;;;;;20.50;47.96;99441.53;8203396;28;20055;-73
2022/05/26 12:49:33;;;;;;;6.07;0.80;;;;;;;21.25;46.67;99451.75;8203679;28;20492;-73
2022/05/26 12:53:36;;;;;;;1.63;0.73;;;;;;;21.96;44.98;99438.91;8204630;28;20048;-72
2022/05/26 12:57:40;;;;;;;1.75;0.70;;;;;;;21.76;44.96;99440.22;8217178;28;20085;-74
2022/05/26 13:01:47;;;;;;;3.35;0.90;;;;;;;21.63;43.85;99447.13;8201682;29;20054;-71
2022/05/26 13:05:53;;;;;;;1.23;0.88;;;;;;;21.38;44.53;99447.59;8200878;28;20401;-72
2022/05/26 13:09:54;;;;;;;4.35;0.90;;;;;;;21.60;43.60;99442.38;8201831;28;20047;-73
2022/05/26 13:13:57;;;;;;;3.92;0.77;;;;;;;21.56;43.69;99449.78;8202637;28;20110;-73
2022/05/26 13:17:58;;;;;;;3.97;0.98;;;;;;;21.14;45.25;99453.56;8230470;28;20047;-72
2022/05/26 13:21:59;;;;;;;3.63;0.80;;;;;;;20.80;42.13;99449.84;8201707;28;20043;-72
2022/05/26 13:26:01;;;;;;;3.92;0.82;;;;;;;20.63;43.46;99451.16;8210010;28;20090;-71
2022/05/26 13:34:21;;;;;;;2.00;0.80;;;;;;;20.13;45.79;99443.19;8200293;29;20051;-72
2022/05/26 13:38:37;;;;;;;3.25;0.80;;;;;;;20.12;46.95;99441.59;8201671;28;20467;-73
2022/05/26 13:42:48;;;;;;;3.28;0.82;;;;;;;20.99;46.40;99446.25;8200920;28;20090;-72
2022/05/26 13:46:51;;;;;;;3.85;0.82;;;;;;;23.52;40.88;99434.69;8182196;29;20054;-74
2022/05/26 13:50:53;;;;;;;4.35;0.95;;;;;;;24.33;39.12;99439.66;8190840;28;20047;-72
2022/05/26 13:55:05;;;;;;;3.08;0.73;;;;;;;24.74;37.20;99429.81;8216547;28;20043;-73
2022/05/26 13:59:12;;;;;;;4.47;0.73;;;;;;;25.16;36.32;99430.97;8201023;28;20495;-73
2022/05/26 14:03:19;;;;;;;2.38;0.82;;;;;;;23.51;38.72;99422.06;8200506;28;20046;-72
2022/05/26 14:07:35;;;;;;;1.80;0.70;;;;;;;22.09;42.50;99432.00;8196403;29;20130;-73
2022/05/26 14:11:41;;;;;;;2.83;0.80;;;;;;;21.55;43.62;99428.97;8201132;28;20510;-72
2022/05/26 14:15:47;;;;;;;2.33;0.70;;;;;;;21.01;45.01;99432.91;8212575;28;20043;-73
2022/05/26 14:19:48;;;;;;;3.13;0.82;;;;;;;20.65;44.87;99429.63;8201015;28;20055;-72
2022/05/26 14:24:00;;;;;;;1.17;0.70;;;;;;;20.38;45.10;99428.00;8227996;28;20047;-72
2022/05/26 14:28:04;;;;;;;6.78;0.80;;;;;;;20.16;45.91;99426.00;8206102;28;20510;-72
2022/05/26 14:32:14;;;;;;;6.50;0.73;;;;;;;20.03;46.39;99432.84;8201256;28;20047;-73
2022/05/26 14:36:15;;;;;;;4.32;0.75;;;;;;;19.92;48.03;99437.31;8203119;28;20047;-72
2022/05/26 14:40:17;;;;;;;1.75;0.80;;;;;;;19.90;48.03;99431.38;8199356;28;20055;-72
2022/05/26 14:44:18;;;;;;;4.82;1.08;;;;;;;19.71;48.55;99427.53;8187432;28;20578;-72
2022/05/26 14:48:19;;;;;;;2.30;0.88;;;;;;;19.50;49.25;99427.09;8223333;28;20141;-72
2022/05/26 14:52:24;;;;;;;2.00;1.00;;;;;;;19.33;49.54;99435.69;8198535;29;20055;-73
2022/05/26 14:56:26;;;;;;;4.05;0.75;;;;;;;19.24;50.33;99435.13;8201421;28;20075;-72
2022/05/26 15:00:32;;;;;;;4.97;0.95;;;;;;;19.23;50.33;99428.84;8200309;28;20051;-73
2022/05/26 15:04:37;;;;;;;1.65;0.90;;;;;;;19.27;50.80;99434.38;8203171;28;20047;-73
2022/05/26 15:08:42;;;;;;;3.58;0.98;;;;;;;19.51;49.53;99423.19;8214679;28;20484;-72
2022/05/26 15:12:47;;;;;;;2.10;0.70;;;;;;;19.72;47.99;99428.31;8200524;28;20039;-72
2022/05/26 15:16:49;;;;;;;3.58;0.80;;;;;;;19.90;48.61;99428.66;8175086;28;20113;-72
2022/05/26 15:20:54;;;;;;;5.38;0.70;;;;;;;20.62;46.71;99421.34;8176023;28;20131;-72
2022/05/26 15:24:55;;;;;;;5.65;0.90;;;;;;;21.54;44.88;99416.38;8184786;28;20047;-74
2022/05/26 15:28:56;;;;;;;8.63;0.80;;;;;;;21.41;44.52;99430.34;8194836;28;20074;-73
2022/05/26 15:32:57;;;;;;;2.50;0.80;;;;;;;20.69;46.27;99431.63;8195784;28;20048;-72
2022/05/26 15:37:10;;;;;;;3.38;0.80;;;;;;;20.08;47.56;99424.31;8172704;28;20168;-73
2022/05/26 15:41:12;;;;;;;4.18;0.85;;;;;;;19.61;49.03;99422.63;8193797;28;20052;-72
2022/05/26 15:45:14;;;;;;;4.38;0.90;;;;;;;19.43;49.43;99426.91;8171507;28;20333;-72
2022/05/26 15:49:18;;;;;;;1.83;0.63;;;;;;;19.22;50.59;99431.94;8183154;29;20393;-72
2022/05/26 15:53:19;;;;;;;2.90;0.55;;;;;;;19.18;51.08;99431.06;8166104;29;20052;-73
2022/05/26 15:57:20;;;;;;;3.38;0.80;;;;;;;19.22;50.95;99431.94;8165444;29;20051;-72
2022/05/26 16:01:21;;;;;;;4.40;0.90;;;;;;;19.28;50.30;99419.56;8214532;28;20048;-72
2022/05/26 16:05:23;;;;;;;2.85;0.80;;;;;;;19.29;50.70;99426.63;8205761;28;20503;-72
2022/05/26 16:09:26;;;;;;;2.28;0.73;;;;;;;19.23;50.52;99428.06;8197352;28;20047;-72
2022/05/26 16:13:27;;;;;;;1.77;0.85;;;;;;;19.32;50.53;99432.16;8197518;28;20059;-72
2022/05/26 16:17:28;;;;;;;3.63;0.90;;;;;;;19.41;50.70;99423.72;8197878;28;20558;-74
2022/05/26 16:21:29;;;;;;;1.95;0.80;;;;;;;19.95;49.83;99426.41;8197774;28;20071;-73
2022/05/26 16:25:30;;;;;;;2.78;0.90;;;;;;;20.23;48.33;99426.16;8197089;28;20552;-74
2022/05/26 16:29:31;;;;;;;2.13;0.88;;;;;;;20.00;48.83;99422.56;8226890;28;20050;-72
2022/05/26 16:33:32;;;;;;;2.50;0.80;;;;;;;19.61;49.84;99433.59;8203153;28;20138;-74
2022/05/26 16:37:34;;;;;;;3.40;1.10;;;;;;;19.36;50.85;99438.50;8197562;28;20507;-71
2022/05/26 16:41:38;;;;;;;2.47;0.90;;;;;;;19.29;51.51;99429.34;8195756;29;20070;-73
2022/05/26 16:45:41;;;;;;;8.25;1.02;;;;;;;19.13;51.82;99425.88;8211131;28;20122;-73
2022/05/26 16:49:47;;;;;;;1.50;0.90;;;;;;;19.01;52.12;99426.78;8213260;28;20055;-73
2022/05/26 16:53:48;;;;;;;2.45;1.05;;;;;;;18.90;52.70;99425.75;8197679;28;20155;-71
2022/05/26 16:57:50;;;;;;;1.95;0.95;;;;;;;18.84;53.23;99422.47;8201730;28;20050;-74
2022/05/26 17:01:52;;;;;;;7.50;1.42;;;;;;;18.87;53.06;99421.78;8203588;28;20149;-73
2022/05/26 17:05:54;;;;;;;2.30;1.00;;;;;;;18.90;53.40;99432.00;8185213;28;20079;-73
2022/05/26 17:09:56;;;;;;;2.95;1.08;;;;;;;19.05;53.48;99426.84;8169482;29;20051;-72
2022/05/26 17:22:37;;;;;;;4.88;1.20;;;;;;;18.92;54.42;99416.03;8197332;28;19929;-72
2022/05/26 17:26:38;;;;;;;2.63;1.10;;;;;;;18.69;54.42;99426.03;8203000;28;20056;-72
2022/05/26 17:30:40;;;;;;;8.48;1.63;;;;;;;18.53;54.77;99422.47;8204036;28;20098;-72
2022/05/26 17:34:43;;;;;;;1.70;1.02;;;;;;;18.40;55.60;99423.72;8219173;28;20122;-71
2022/05/26 17:38:46;;;;;;;1.38;0.98;;;;;;;18.29;55.69;99428.13;8214754;28;20062;-73
2022/05/26 17:42:47;;;;;;;3.70;1.23;;;;;;;18.15;56.38;99418.41;8201415;28;20574;-72
2022/05/26 17:46:50;;;;;;;4.07;1.95;;;;;;;18.07;56.73;99422.13;8203367;28;20051;-72
2022/05/26 17:50:52;;;;;;;2.97;1.23;;;;;;;18.04;56.82;99422.81;8219075;28;20055;-71
2022/05/26 17:54:58;;;;;;;4.32;1.33;;;;;;;17.95;57.17;99407.72;8210818;28;20062;-72
2022/05/26 17:58:58;;;;;;;4.68;1.10;;;;;;;17.93;57.69;99410.78;8202088;28;20091;-72
2022/05/26 18:03:03;;;;;;;5.95;1.65;;;;;;;17.94;58.08;99412.38;8202043;28;20094;-72
2022/05/26 18:07:06;;;;;;;4.50;1.35;;;;;;;17.93;58.33;99405.31;8201830;28;20081;-71
2022/05/26 18:11:07;;;;;;;3.78;1.58;;;;;;;17.87;59.11;99414.16;8201240;28;20471;-72
2022/05/26 18:15:10;;;;;;;6.57;2.08;;;;;;;17.64;59.96;99402.97;8199376;28;20058;-72
2022/05/26 18:19:15;;;;;;;7.13;2.20;;;;;;;17.48;60.75;99410.28;8216409;28;20074;-72
2022/05/26 18:23:20;;;;;;;7.28;2.22;;;;;;;17.28;61.39;99412.88;8200316;28;20432;-72
2022/05/26 18:27:21;;;;;;;4.38;2.03;;;;;;;17.19;61.76;99414.91;8201212;28;20055;-72
2022/05/26 18:31:26;;;;;;;4.03;1.90;;;;;;;17.15;60.67;99408.56;8201171;28;20047;-71
2022/05/26 18:35:27;;;;;;;2.70;1.55;;;;;;;17.06;60.84;99410.63;8199854;28;20109;-73
2022/05/26 18:39:30;;;;;;;8.02;1.67;;;;;;;17.00;60.45;99417.47;8209488;28;20403;-72
2022/05/26 18:43:31;;;;;;;5.28;1.90;;;;;;;16.92;60.04;99414.88;8200156;28;20074;-73
2022/05/26 18:47:39;;;;;;;7.10;1.73;;;;;;;16.92;59.92;99415.63;8200159;28;20043;-74
2022/05/26 18:51:43;;;;;;;8.27;1.73;;;;;;;16.90;60.32;99412.47;8199198;28;20051;-72
2022/05/26 18:55:49;;;;;;;6.07;2.22;;;;;;;16.92;59.66;99421.09;8197852;28;20419;-73
2022/05/26 18:59:50;;;;;;;7.65;2.22;;;;;;;16.93;59.65;99428.16;8200277;28;20043;-72
2022/05/26 19:03:52;;;;;;;14.13;2.67;;;;;;;16.97;59.71;99431.00;8200223;28;20134;-73
2022/05/26 19:07:53;;;;;;;6.95;2.45;;;;;;;16.96;59.84;99432.94;8199508;28;20138;-73
2022/05/26 19:11:58;;;;;;;5.72;2.60;;;;;;;16.95;60.11;99436.78;8199657;28;20102;-72
2022/05/26 19:15:59;;;;;;;7.18;2.00;;;;;;;16.92;59.98;99442.91;8199406;28;20427;-72
2022/05/26 19:20:00;;;;;;;8.52;2.35;;;;;;;16.89;60.42;99449.06;8197139;28;20047;-72
2022/05/26 19:24:03;;;;;;;12.43;2.40;;;;;;;16.92;60.03;99451.09;8202213;28;20055;-72
2022/05/26 19:28:05;;;;;;;9.60;2.40;;;;;;;16.90;60.18;99439.75;8235845;28;20521;-71
2022/05/26 19:32:08;;;;;;;4.35;2.20;;;;;;;16.90;60.08;99445.22;8200979;28;20051;-71
2022/05/26 19:36:09;;;;;;;5.28;2.50;;;;;;;16.98;59.71;99449.75;8190889;28;20103;-72
2022/05/26 19:40:13;;;;;;;8.38;2.30;;;;;;;16.91;59.63;99455.00;8188342;28;20097;-73
2022/05/26 19:44:16;;;;;;;4.45;2.08;;;;;;;16.95;59.31;99449.63;8181364;28;20051;-73
2022/05/26 19:48:18;;;;;;;9.27;2.00;;;;;;;16.95;59.11;99458.63;8185090;28;20051;-73
2022/05/26 19:52:23;;;;;;;3.58;1.63;;;;;;;16.94;59.21;99459.75;8206714;28;20504;-73
2022/05/26 19:56:24;;;;;;;6.85;1.92;;;;;;;16.88;59.35;99452.94;8185081;28;20059;-72
2022/05/26 20:00:27;;;;;;;5.68;2.08;;;;;;;16.86;59.41;99456.03;8183928;28;20048;-72
2022/05/26 20:04:28;;;;;;;3.47;1.90;;;;;;;16.81;59.49;99447.28;8184251;28;20051;-73